Time;durP1;ratioP1;P1;durP2;ratioP2;P2;SDS_P1;SDS_P2;PMS_P1;PMS_P2;Temp;Humidity;BMP_temperature;BMP_pressure;BME280_temperature;BME280_humidity;BME280_pressure;Samples;Min_cycle;Max_cycle;Signal;HPM_P1;HPM_P2
2022/12/07 00:01:12;;;;;;;;;;;;;;;2.19;94.91797;101951.1;;;;-77
2022/12/07 00:04:04;;;;;;;2.7;1;;;;;;;;;;;;;-76
2022/12/07 00:06:06;;;;;;;;;;;;;;;2.22;94.91504;101949.1;;;;-76
2022/12/07 00:11:09;;;;;;;;;;;;;;;2.25;94.88867;101952.3;;;;-76
2022/12/07 00:16:08;;;;;;;;;;;;;;;2.25;94.93164;101950.8;;;;-76
2022/12/07 00:21:09;;;;;;;;;;;;;;;2.22;94.88086;101951.7;;;;-77
2022/12/07 00:26:11;;;;;;;;;;;;;;;2.2;94.94336;101945.6;;;;-76
2022/12/07 00:31:08;;;;;;;;;;;;;;;2.16;94.95508;101942.2;;;;-75
2022/12/07 00:33:58;;;;;;;2.4;0.8;;;;;;;;;;;;;-76
2022/12/07 00:36:06;;;;;;;;;;;;;;;2.14;95.16504;101936.5;;;;-75
2022/12/07 00:41:05;;;;;;;;;;;;;;;2.14;94.92773;101935.3;;;;-76
2022/12/07 00:46:05;;;;;;;;;;;;;;;2.08;95.05566;101933.9;;;;-76
2022/12/07 00:51:05;;;;;;;;;;;;;;;2.08;94.95801;101945.3;;;;-75
2022/12/07 00:56:08;;;;;;;;;;;;;;;2.11;94.77051;101938.7;;;;-75
2022/12/07 01:01:08;;;;;;;;;;;;;;;2.15;94.90918;101941.8;;;;-75
2022/12/07 01:03:57;;;;;;;1.7;0.6;;;;;;;;;;;;;-77
2022/12/07 01:06:06;;;;;;;;;;;;;;;2.2;94.88965;101932.8;;;;-77
2022/12/07 01:11:07;;;;;;;;;;;;;;;2.25;94.88867;101927.5;;;;-77
2022/12/07 01:16:06;;;;;;;;;;;;;;;2.29;94.7998;101928;;;;-76
2022/12/07 01:21:07;;;;;;;;;;;;;;;2.33;94.98242;101931.5;;;;-76
2022/12/07 01:26:06;;;;;;;;;;;;;;;2.35;94.89063;101936;;;;-77
2022/12/07 01:31:06;;;;;;;;;;;;;;;2.37;94.94727;101934.3;;;;-77
2022/12/07 01:33:57;;;;;;;2.8;0.6;;;;;;;;;;;;;-76
2022/12/07 01:36:09;;;;;;;;;;;;;;;2.34;95.09082;101926.6;;;;-75
2022/12/07 01:41:06;;;;;;;;;;;;;;;2.31;94.87891;101918.7;;;;-76
2022/12/07 01:46:05;;;;;;;;;;;;;;;2.26;94.93359;101923.3;;;;-76
2022/12/07 01:51:09;;;;;;;;;;;;;;;2.21;94.87012;101924.3;;;;-75
2022/12/07 01:56:05;;;;;;;;;;;;;;;2.2;94.81152;101922.2;;;;-75
2022/12/07 02:01:05;;;;;;;;;;;;;;;2.18;94.79688;101922.6;;;;-76
2022/12/07 02:03:56;;;;;;;1.7;0.6;;;;;;;;;;;;;-76
2022/12/07 02:06:05;;;;;;;;;;;;;;;2.22;94.76367;101925.5;;;;-76
2022/12/07 02:11:07;;;;;;;;;;;;;;;2.2;94.9541;101924.4;;;;-75
2022/12/07 02:16:13;;;;;;;;;;;;;;;2.2;94.80078;101915.1;;;;-76
2022/12/07 02:21:10;;;;;;;;;;;;;;;2.15;94.87695;101910.6;;;;-76
2022/12/07 02:26:22;;;;;;;;;;;;;;;2.08;94.69043;101903.5;;;;-75
2022/12/07 02:31:07;;;;;;;;;;;;;;;2.01;94.86914;101905.5;;;;-76
2022/12/07 02:33:58;;;;;;;2.4;0.6;;;;;;;;;;;;;-76
2022/12/07 02:36:08;;;;;;;;;;;;;;;1.98;95.12012;101893.8;;;;-77
2022/12/07 02:41:08;;;;;;;;;;;;;;;1.93;95.0752;101891.4;;;;-76
2022/12/07 02:46:10;;;;;;;;;;;;;;;1.88;94.96777;101892.1;;;;-76
2022/12/07 02:51:05;;;;;;;;;;;;;;;1.83;94.9043;101905.1;;;;-76
2022/12/07 02:56:06;;;;;;;;;;;;;;;1.8;94.82227;101917.3;;;;-76
2022/12/07 03:01:09;;;;;;;;;;;;;;;1.84;95.02441;101910.4;;;;-77
2022/12/07 03:03:57;;;;;;;1.5;0.5;;;;;;;;;;;;;-77
2022/12/07 03:06:13;;;;;;;;;;;;;;;1.87;94.84961;101911;;;;-77
2022/12/07 03:11:08;;;;;;;;;;;;;;;1.9;94.9834;101899.5;;;;-77
2022/12/07 03:16:08;;;;;;;;;;;;;;;1.92;94.94629;101897.8;;;;-78
2022/12/07 03:21:06;;;;;;;;;;;;;;;1.91;94.93262;101894.4;;;;-76
2022/12/07 03:26:07;;;;;;;;;;;;;;;1.9;95.10352;101889.6;;;;-76
2022/12/07 03:31:06;;;;;;;;;;;;;;;1.88;94.8623;101883.7;;;;-77
2022/12/07 03:33:56;;;;;;;1.5;0.4;;;;;;;;;;;;;-74
2022/12/07 03:36:08;;;;;;;;;;;;;;;1.89;94.96191;101886.6;;;;-77
2022/12/07 03:41:08;;;;;;;;;;;;;;;1.93;94.89355;101898;;;;-76
2022/12/07 03:46:11;;;;;;;;;;;;;;;1.97;94.90137;101879.4;;;;-75
2022/12/07 03:51:10;;;;;;;;;;;;;;;1.98;94.76563;101875.8;;;;-76
2022/12/07 03:56:06;;;;;;;;;;;;;;;1.96;94.70508;101869.7;;;;-75
2022/12/07 04:01:05;;;;;;;;;;;;;;;1.94;94.75391;101875.7;;;;-76
2022/12/07 04:03:52;;;;;;;1.9;0.4;;;;;;;;;;;;;-76
2022/12/07 04:06:05;;;;;;;;;;;;;;;1.88;94.74121;101873.5;;;;-76
2022/12/07 04:11:05;;;;;;;;;;;;;;;1.85;94.88867;101869.7;;;;-77
2022/12/07 04:16:05;;;;;;;;;;;;;;;1.81;94.90039;101872.6;;;;-76
2022/12/07 04:21:05;;;;;;;;;;;;;;;1.8;94.7666;101874.8;;;;-76
2022/12/07 04:26:05;;;;;;;;;;;;;;;1.76;94.8877;101867.6;;;;-76
2022/12/07 04:31:05;;;;;;;;;;;;;;;1.74;94.9248;101872.3;;;;-75
2022/12/07 04:33:52;;;;;;;2.8;0.5;;;;;;;;;;;;;-75
2022/12/07 04:36:05;;;;;;;;;;;;;;;1.71;94.89941;101872.7;;;;-76
2022/12/07 04:41:07;;;;;;;;;;;;;;;1.7;94.85254;101881.2;;;;-75
2022/12/07 04:46:06;;;;;;;;;;;;;;;1.65;94.78809;101864.8;;;;-77
2022/12/07 04:51:06;;;;;;;;;;;;;;;1.68;94.9043;101860.6;;;;-76
2022/12/07 04:56:05;;;;;;;;;;;;;;;1.73;94.84766;101856.1;;;;-77
2022/12/07 05:01:05;;;;;;;;;;;;;;;1.71;94.7373;101859.1;;;;-77
2022/12/07 05:03:51;;;;;;;1.5;0.4;;;;;;;;;;;;;-77
2022/12/07 05:06:05;;;;;;;;;;;;;;;1.76;94.82324;101865.5;;;;-77
2022/12/07 05:11:05;;;;;;;;;;;;;;;1.79;94.87207;101866.2;;;;-78
2022/12/07 05:16:05;;;;;;;;;;;;;;;1.88;95.25977;101861;;;;-77
2022/12/07 05:21:05;;;;;;;;;;;;;;;1.9;95.03711;101853.8;;;;-77
2022/12/07 05:26:05;;;;;;;;;;;;;;;1.94;94.96094;101851.3;;;;-77
2022/12/07 05:31:05;;;;;;;;;;;;;;;1.96;94.90039;101860.4;;;;-77
2022/12/07 05:33:50;;;;;;;2.1;0.4;;;;;;;;;;;;;-77
2022/12/07 05:36:07;;;;;;;;;;;;;;;1.94;94.83984;101851.3;;;;-77
2022/12/07 05:42:11;;;;;;;;;;;;;;;1.91;94.90039;101848.3;;;;-77
2022/12/07 05:46:06;;;;;;;;;;;;;;;1.87;94.79492;101849;;;;-78
2022/12/07 05:51:06;;;;;;;;;;;;;;;1.84;94.87402;101841.6;;;;-77
2022/12/07 05:56:05;;;;;;;;;;;;;;;1.84;94.88281;101840.4;;;;-77
2022/12/07 06:01:08;;;;;;;;;;;;;;;1.82;94.85645;101854.8;;;;-77
2022/12/07 06:03:49;;;;;;;1.6;0.4;;;;;;;;;;;;;-77
2022/12/07 06:06:04;;;;;;;;;;;;;;;1.84;94.95996;101856.9;;;;-77
2022/12/07 06:16:05;;;;;;;;;;;;;;;1.92;94.85742;101834.9;;;;-77
2022/12/07 06:21:05;;;;;;;;;;;;;;;1.94;94.79883;101837.7;;;;-76
2022/12/07 06:26:05;;;;;;;;;;;;;;;1.93;94.87207;101844.5;;;;-75
2022/12/07 06:31:05;;;;;;;;;;;;;;;1.91;94.93262;101838.8;;;;-77
2022/12/07 06:33:48;;;;;;;1.9;0.5;;;;;;;;;;;;;-77
2022/12/07 06:36:04;;;;;;;;;;;;;;;1.89;94.71289;101836.9;;;;-77
2022/12/07 06:41:06;;;;;;;;;;;;;;;1.88;94.8623;101841.3;;;;-78
2022/12/07 06:46:05;;;;;;;;;;;;;;;1.87;94.97461;101844.6;;;;-77
2022/12/07 06:51:05;;;;;;;;;;;;;;;1.86;94.91016;101845.8;;;;-77
2022/12/07 06:56:05;;;;;;;;;;;;;;;1.82;94.81348;101844.9;;;;-77
2022/12/07 07:01:05;;;;;;;;;;;;;;;1.73;94.83887;101843.9;;;;-76
2022/12/07 07:03:49;;;;;;;1.5;0.4;;;;;;;;;;;;;-76
2022/12/07 07:06:05;;;;;;;;;;;;;;;1.71;94.88867;101850.6;;;;-76
2022/12/07 07:11:05;;;;;;;;;;;;;;;1.74;94.93555;101877.2;;;;-78
2022/12/07 07:16:05;;;;;;;;;;;;;;;1.79;95.17676;101869.5;;;;-77
2022/12/07 07:21:05;;;;;;;;;;;;;;;1.85;95.0918;101865.4;;;;-77
2022/12/07 07:26:04;;;;;;;;;;;;;;;1.87;95.10645;101859.6;;;;-76
2022/12/07 07:31:05;;;;;;;;;;;;;;;1.85;95.19043;101859.5;;;;-77
2022/12/07 07:33:48;;;;;;;1.4;0.4;;;;;;;;;;;;;-77
2022/12/07 07:36:04;;;;;;;;;;;;;;;1.84;94.88281;101855.3;;;;-79
2022/12/07 07:41:05;;;;;;;;;;;;;;;1.86;94.79102;101876.6;;;;-77
2022/12/07 07:46:04;;;;;;;;;;;;;;;1.9;94.875;101878.4;;;;-78
2022/12/07 07:51:08;;;;;;;;;;;;;;;1.93;95;101882.9;;;;-77
2022/12/07 07:56:05;;;;;;;;;;;;;;;1.97;94.8584;101867.8;;;;-77
2022/12/07 08:01:06;;;;;;;;;;;;;;;1.99;94.89551;101861.6;;;;-77
2022/12/07 08:03:48;;;;;;;1.7;0.4;;;;;;;;;;;;;-78
2022/12/07 08:06:05;;;;;;;;;;;;;;;2.02;94.83594;101867.8;;;;-78
2022/12/07 08:11:08;;;;;;;;;;;;;;;2.03;94.91602;101870.2;;;;-76
2022/12/07 08:16:07;;;;;;;;;;;;;;;2.05;94.73438;101870.6;;;;-77
2022/12/07 08:21:06;;;;;;;;;;;;;;;2.03;94.83008;101877.8;;;;-76
2022/12/07 08:26:08;;;;;;;;;;;;;;;2.01;94.91211;101886;;;;-76
2022/12/07 08:31:07;;;;;;;;;;;;;;;2.06;94.63086;101888.6;;;;-77
2022/12/07 08:33:46;;;;;;;0.6;0.3;;;;;;;;;;;;;-76
2022/12/07 08:36:08;;;;;;;;;;;;;;;2.09;94.79883;101890.2;;;;-77
2022/12/07 08:41:05;;;;;;;;;;;;;;;2.15;94.76953;101892.1;;;;-77
2022/12/07 08:46:07;;;;;;;;;;;;;;;2.2;94.5957;101883.9;;;;-77
2022/12/07 08:51:05;;;;;;;;;;;;;;;2.27;94.43848;101867.3;;;;-77
2022/12/07 08:56:05;;;;;;;;;;;;;;;2.35;94.27344;101856.5;;;;-77
2022/12/07 09:01:05;;;;;;;;;;;;;;;2.42;94.25684;101857.5;;;;-77
2022/12/07 09:03:45;;;;;;;1.1;0.3;;;;;;;;;;;;;-76
2022/12/07 09:06:05;;;;;;;;;;;;;;;2.49;94.3916;101855.9;;;;-77
2022/12/07 09:11:05;;;;;;;;;;;;;;;2.55;94.52246;101859;;;;-77
2022/12/07 09:16:04;;;;;;;;;;;;;;;2.64;94.57324;101859;;;;-77
2022/12/07 09:21:05;;;;;;;;;;;;;;;2.75;94.55371;101865;;;;-77
2022/12/07 09:26:07;;;;;;;;;;;;;;;2.89;94.9209;101862.8;;;;-78
2022/12/07 09:31:06;;;;;;;;;;;;;;;2.98;94.38867;101872.5;;;;-79
2022/12/07 09:33:44;;;;;;;4.1;0.5;;;;;;;;;;;;;-77
2022/12/07 09:36:05;;;;;;;;;;;;;;;3.04;93.58887;101864.6;;;;-76
2022/12/07 09:41:07;;;;;;;;;;;;;;;3.13;93.04688;101866.1;;;;-77
2022/12/07 09:46:05;;;;;;;;;;;;;;;3.27;92.14453;101860.7;;;;-77
2022/12/07 09:51:05;;;;;;;;;;;;;;;3.37;91.5918;101861.6;;;;-78
2022/12/07 09:56:05;;;;;;;;;;;;;;;3.42;91.98047;101863.4;;;;-76
2022/12/07 10:01:13;;;;;;;;;;;;;;;3.43;91.94141;101858.8;;;;-78
2022/12/07 10:03:46;;;;;;;1.9;0.5;;;;;;;;;;;;;-78
2022/12/07 10:06:05;;;;;;;;;;;;;;;3.43;92.08203;101852.6;;;;-77
2022/12/07 10:11:10;;;;;;;;;;;;;;;3.43;92.21191;101849.8;;;;-77
2022/12/07 10:16:05;;;;;;;;;;;;;;;3.46;92.21875;101837.5;;;;-77
2022/12/07 10:21:09;;;;;;;;;;;;;;;3.53;92.19043;101832.9;;;;-77
2022/12/07 10:26:14;;;;;;;;;;;;;;;3.58;92.15723;101830.3;;;;-78
2022/12/07 10:31:07;;;;;;;;;;;;;;;3.69;92.01758;101826.2;;;;-77
2022/12/07 10:33:52;;;;;;;2.6;0.4;;;;;;;;;;;;;-77
2022/12/07 10:36:14;;;;;;;;;;;;;;;3.79;91.46387;101820.6;;;;-77
2022/12/07 10:41:11;;;;;;;;;;;;;;;3.89;90.60547;101810.3;;;;-77
2022/12/07 10:46:25;;;;;;;;;;;;;;;3.93;90.52637;101811.6;;;;-76
2022/12/07 10:51:10;;;;;;;;;;;;;;;3.98;90.80859;101808.7;;;;-76
2022/12/07 10:56:16;;;;;;;;;;;;;;;3.99;90.65918;101800.6;;;;-76
2022/12/07 11:01:13;;;;;;;;;;;;;;;4.01;91.05371;101799.1;;;;-76
2022/12/07 11:03:48;;;;;;;2.9;0.6;;;;;;;;;;;;;-76
2022/12/07 11:06:10;;;;;;;;;;;;;;;4.05;90.82422;101793.9;;;;-75
2022/12/07 11:11:08;;;;;;;;;;;;;;;4.17;90.69727;101785.9;;;;-76
2022/12/07 11:16:15;;;;;;;;;;;;;;;4.31;90.71484;101775.6;;;;-77
2022/12/07 11:21:11;;;;;;;;;;;;;;;4.56;90.49609;101767.4;;;;-76
2022/12/07 11:26:10;;;;;;;;;;;;;;;4.7;90.15527;101763.4;;;;-75
2022/12/07 11:31:10;;;;;;;;;;;;;;;4.75;90.43848;101766;;;;-76
2022/12/07 11:33:46;;;;;;;3.4;0.5;;;;;;;;;;;;;-76
2022/12/07 11:36:13;;;;;;;;;;;;;;;4.78;91.03223;101762.7;;;;-77
2022/12/07 11:41:16;;;;;;;;;;;;;;;4.81;90.82031;101757.1;;;;-76
2022/12/07 11:46:07;;;;;;;;;;;;;;;4.84;90.93652;101760.7;;;;-76
2022/12/07 11:51:06;;;;;;;;;;;;;;;4.91;91.02441;101759.2;;;;-76
2022/12/07 11:56:07;;;;;;;;;;;;;;;4.92;90.56152;101753.9;;;;-76
2022/12/07 12:01:10;;;;;;;;;;;;;;;4.98;90.36426;101747.8;;;;-77
2022/12/07 12:03:44;;;;;;;2.1;0.5;;;;;;;;;;;;;-76
2022/12/07 12:06:05;;;;;;;;;;;;;;;5.04;90.64063;101751.2;;;;-77
2022/12/07 12:11:15;;;;;;;;;;;;;;;5.15;90.10645;101741.6;;;;-75
2022/12/07 12:16:12;;;;;;;;;;;;;;;5.29;90.24609;101728.4;;;;-76
2022/12/07 12:21:08;;;;;;;;;;;;;;;5.47;90.05273;101722.6;;;;-76
2022/12/07 12:26:05;;;;;;;;;;;;;;;5.53;89.76074;101725.7;;;;-75
2022/12/07 12:31:17;;;;;;;;;;;;;;;5.45;89.76563;101721.7;;;;-76
2022/12/07 12:33:46;;;;;;;2.4;0.6;;;;;;;;;;;;;-77
2022/12/07 12:36:16;;;;;;;;;;;;;;;5.36;89.72461;101720.7;;;;-78
2022/12/07 12:41:06;;;;;;;;;;;;;;;5.31;89.75879;101717.2;;;;-76
2022/12/07 12:46:15;;;;;;;;;;;;;;;5.3;89.81152;101711.9;;;;-77
2022/12/07 12:51:16;;;;;;;;;;;;;;;5.33;90.07031;101706.6;;;;-76
2022/12/07 12:56:16;;;;;;;;;;;;;;;5.38;90.43848;101701.2;;;;-78
2022/12/07 13:01:16;;;;;;;;;;;;;;;5.42;90.39258;101692.4;;;;-77
2022/12/07 13:03:53;;;;;;;3.3;0.5;;;;;;;;;;;;;-78
2022/12/07 13:06:31;;;;;;;;;;;;;;;5.51;89.8877;101694.1;;;;-77
2022/12/07 13:11:15;;;;;;;;;;;;;;;5.63;89.79199;101682.4;;;;-77
2022/12/07 13:16:16;;;;;;;;;;;;;;;5.75;90.28613;101668.6;;;;-76
2022/12/07 13:21:05;;;;;;;;;;;;;;;5.84;89.91211;101654;;;;-76
2022/12/07 13:26:13;;;;;;;;;;;;;;;5.91;89.2832;101646.4;;;;-77
2022/12/07 13:31:12;;;;;;;;;;;;;;;5.97;89.40527;101642.3;;;;-76
2022/12/07 13:33:42;;;;;;;2.8;0.4;;;;;;;;;;;;;-76
2022/12/07 13:36:05;;;;;;;;;;;;;;;5.98;89.29688;101640.7;;;;-76
2022/12/07 13:41:16;;;;;;;;;;;;;;;5.96;89.08496;101639.6;;;;-76
2022/12/07 13:46:05;;;;;;;;;;;;;;;5.91;89.04297;101643.5;;;;-76
2022/12/07 13:51:06;;;;;;;;;;;;;;;5.83;88.68652;101638.7;;;;-77
2022/12/07 13:56:05;;;;;;;;;;;;;;;5.76;88.77148;101633;;;;-76
2022/12/07 14:01:05;;;;;;;;;;;;;;;5.67;88.76563;101627.8;;;;-76
2022/12/07 14:03:42;;;;;;;2.7;0.5;;;;;;;;;;;;;-77
2022/12/07 14:06:17;;;;;;;;;;;;;;;5.62;89.17969;101616.6;;;;-77
2022/12/07 14:11:05;;;;;;;;;;;;;;;5.56;88.9834;101616.1;;;;-77
2022/12/07 14:16:05;;;;;;;;;;;;;;;5.5;89.46094;101614;;;;-77
2022/12/07 14:21:18;;;;;;;;;;;;;;;5.47;89.70605;101611.9;;;;-77
2022/12/07 14:26:15;;;;;;;;;;;;;;;5.41;89.61816;101613.6;;;;-78
2022/12/07 14:31:05;;;;;;;;;;;;;;;5.36;90.09766;101610.5;;;;-77
2022/12/07 14:33:42;;;;;;;2;0.4;;;;;;;;;;;;;-77
2022/12/07 14:36:05;;;;;;;;;;;;;;;5.31;89.82227;101601.4;;;;-77
2022/12/07 14:46:05;;;;;;;;;;;;;;;5.21;89.93457;101599.8;;;;-77
2022/12/07 14:51:04;;;;;;;;;;;;;;;5.15;90.40234;101600.4;;;;-77
2022/12/07 14:56:05;;;;;;;;;;;;;;;5.1;91.30566;101602.6;;;;-76
2022/12/07 15:01:04;;;;;;;;;;;;;;;5.05;92.09961;101606.5;;;;-77
2022/12/07 15:03:42;;;;;;;2.4;0.5;;;;;;;;;;;;;-76
2022/12/07 15:06:05;;;;;;;;;;;;;;;5;92.50391;101606.2;;;;-77
2022/12/07 15:11:04;;;;;;;;;;;;;;;4.94;92.40332;101599.5;;;;-77
2022/12/07 15:16:04;;;;;;;;;;;;;;;4.87;93.21582;101589.7;;;;-78
2022/12/07 15:21:04;;;;;;;;;;;;;;;4.81;93.49609;101584.5;;;;-77
2022/12/07 15:26:05;;;;;;;;;;;;;;;4.73;93.3916;101579.6;;;;-76
2022/12/07 15:31:04;;;;;;;;;;;;;;;4.67;93.35742;101576.7;;;;-77
2022/12/07 15:33:42;;;;;;;2;0.5;;;;;;;;;;;;;-77
2022/12/07 15:36:04;;;;;;;;;;;;;;;4.61;93.40039;101566.7;;;;-77
2022/12/07 15:41:04;;;;;;;;;;;;;;;4.54;93.4502;101561.6;;;;-76
2022/12/07 15:46:04;;;;;;;;;;;;;;;4.5;93.375;101560.4;;;;-76
2022/12/07 15:51:10;;;;;;;;;;;;;;;4.45;93.45215;101555.5;;;;-76
2022/12/07 15:56:05;;;;;;;;;;;;;;;4.45;93.00684;101554.5;;;;-77
2022/12/07 16:01:13;;;;;;;;;;;;;;;4.4;93.125;101553.4;;;;-77
2022/12/07 16:03:42;;;;;;;2.6;0.4;;;;;;;;;;;;;-77
2022/12/07 16:06:04;;;;;;;;;;;;;;;4.37;93.1084;101548;;;;-77
2022/12/07 16:11:08;;;;;;;;;;;;;;;4.31;93.24609;101549;;;;-76
2022/12/07 16:16:07;;;;;;;;;;;;;;;4.3;93.20117;101546.5;;;;-78
2022/12/07 16:21:05;;;;;;;;;;;;;;;4.28;93.09961;101542.7;;;;-77
2022/12/07 16:26:13;;;;;;;;;;;;;;;4.25;93.14746;101534.5;;;;-76
2022/12/07 16:31:09;;;;;;;;;;;;;;;4.2;93.17969;101532.8;;;;-77
2022/12/07 16:33:44;;;;;;;1.7;0.5;;;;;;;;;;;;;-77
2022/12/07 16:36:06;;;;;;;;;;;;;;;4.18;92.87207;101576.6;;;;-77
2022/12/07 16:41:04;;;;;;;;;;;;;;;4.06;93.29102;101545.8;;;;-77
2022/12/07 16:46:04;;;;;;;;;;;;;;;4.03;93.12305;101535.1;;;;-77
2022/12/07 16:51:06;;;;;;;;;;;;;;;3.97;93.18457;101528.1;;;;-75
2022/12/07 16:56:06;;;;;;;;;;;;;;;3.95;93.22461;101519.7;;;;-75
2022/12/07 17:01:12;;;;;;;;;;;;;;;3.9;93.24512;101511;;;;-74
2022/12/07 17:03:42;;;;;;;1.4;0.5;;;;;;;;;;;;;-75
2022/12/07 17:06:04;;;;;;;;;;;;;;;3.9;93.27734;101503.8;;;;-75
2022/12/07 17:11:04;;;;;;;;;;;;;;;3.84;93.41797;101495.8;;;;-76
2022/12/07 17:16:06;;;;;;;;;;;;;;;3.8;93.42969;101491;;;;-75
2022/12/07 17:21:09;;;;;;;;;;;;;;;3.77;93.38965;101487.8;;;;-76
2022/12/07 17:26:12;;;;;;;;;;;;;;;3.73;93.46777;101493.4;;;;-76
2022/12/07 17:31:05;;;;;;;;;;;;;;;3.72;93.30371;101492.6;;;;-75
2022/12/07 17:33:42;;;;;;;2.4;0.6;;;;;;;;;;;;;-76
2022/12/07 17:36:05;;;;;;;;;;;;;;;3.69;93.43848;101490.3;;;;-76
2022/12/07 17:41:11;;;;;;;;;;;;;;;3.65;93.61523;101484.9;;;;-75
2022/12/07 17:46:08;;;;;;;;;;;;;;;3.64;93.52441;101475.6;;;;-76
2022/12/07 17:56:05;;;;;;;;;;;;;;;3.64;93.63477;101475.6;;;;-78
2022/12/07 18:01:05;;;;;;;;;;;;;;;3.64;93.63477;101465.3;;;;-78
2022/12/07 18:03:41;;;;;;;3.7;0.6;;;;;;;;;;;;;-78
2022/12/07 18:06:05;;;;;;;;;;;;;;;3.66;93.55176;101465.2;;;;-77
2022/12/07 18:16:05;;;;;;;;;;;;;;;3.59;93.76563;101460.6;;;;-77
2022/12/07 18:21:05;;;;;;;;;;;;;;;3.56;93.7666;101457.6;;;;-75
2022/12/07 18:26:04;;;;;;;;;;;;;;;3.53;93.79492;101462.3;;;;-77
2022/12/07 18:31:05;;;;;;;;;;;;;;;3.56;93.56055;101469.8;;;;-76
2022/12/07 18:33:42;;;;;;;2.3;0.6;;;;;;;;;;;;;-78
2022/12/07 18:36:06;;;;;;;;;;;;;;;3.5;93.81055;101482.3;;;;-76
2022/12/07 18:41:06;;;;;;;;;;;;;;;3.5;93.86523;101492.3;;;;-76
2022/12/07 18:46:06;;;;;;;;;;;;;;;3.49;94.03223;101496.2;;;;-76
2022/12/07 18:51:08;;;;;;;;;;;;;;;3.51;93.87793;101481.4;;;;-77
2022/12/07 18:56:08;;;;;;;;;;;;;;;3.52;94.00781;101458.2;;;;-76
2022/12/07 19:01:04;;;;;;;;;;;;;;;3.46;94.05078;101443.1;;;;-76
2022/12/07 19:03:41;;;;;;;3;0.7;;;;;;;;;;;;;-77
2022/12/07 19:06:09;;;;;;;;;;;;;;;3.45;94.10254;101435.9;;;;-76
2022/12/07 19:11:48;;;;;;;;;;;;;;;3.43;93.96875;101429.5;;;;-75
2022/12/07 19:16:10;;;;;;;;;;;;;;;3.4;94.21191;101426.7;;;;-77
2022/12/07 19:21:05;;;;;;;;;;;;;;;3.36;94.25586;101423.2;;;;-74
2022/12/07 19:26:04;;;;;;;;;;;;;;;3.32;94.36719;101414.3;;;;-76
2022/12/07 19:31:08;;;;;;;;;;;;;;;3.32;94.15039;101408.7;;;;-76
2022/12/07 19:33:40;;;;;;;1.4;0.6;;;;;;;;;;;;;-75
2022/12/07 19:36:05;;;;;;;;;;;;;;;3.27;94.34473;101404.1;;;;-76
2022/12/07 19:41:32;;;;;;;;;;;;;;;3.29;94.02344;101402.6;;;;-80
2022/12/07 19:46:17;;;;;;;;;;;;;;;3.26;94.11328;101394.2;;;;-76
2022/12/07 19:51:09;;;;;;;;;;;;;;;3.18;94.27051;101391.7;;;;-77
2022/12/07 19:56:05;;;;;;;;;;;;;;;3.21;94.16992;101382;;;;-78
2022/12/07 20:01:09;;;;;;;;;;;;;;;3.15;94.19922;101376.3;;;;-75
2022/12/07 20:03:39;;;;;;;1.6;0.7;;;;;;;;;;;;;-76
2022/12/07 20:06:05;;;;;;;;;;;;;;;3.1;94.2959;101373.5;;;;-76
2022/12/07 20:13:27;;;;;;;;;;;;;;;3.04;94.35938;101370.6;;;;-76
2022/12/07 20:16:08;;;;;;;;;;;;;;;2.97;94.46484;101366.5;;;;-73
2022/12/07 20:21:04;;;;;;;;;;;;;;;2.89;94.66113;101358.3;;;;-76
2022/12/07 20:26:06;;;;;;;;;;;;;;;2.87;94.2998;101354.2;;;;-76
2022/12/07 20:31:07;;;;;;;;;;;;;;;2.82;94.25586;101342.7;;;;-76
2022/12/07 20:33:38;;;;;;;2.3;0.8;;;;;;;;;;;;;-77
2022/12/07 20:36:08;;;;;;;;;;;;;;;2.73;94.48633;101336.5;;;;-76
2022/12/07 20:42:35;;;;;;;;;;;;;;;2.67;94.63672;101333.5;;;;-76
2022/12/07 20:46:04;;;;;;;;;;;;;;;2.66;94.53516;101326.6;;;;-76
2022/12/07 20:51:11;;;;;;;;;;;;;;;2.6;94.61035;101318.8;;;;-75
2022/12/07 20:56:04;;;;;;;;;;;;;;;2.58;94.53906;101316.9;;;;-75
2022/12/07 21:01:06;;;;;;;;;;;;;;;2.58;94.44141;101316.2;;;;-75
2022/12/07 21:03:38;;;;;;;3.9;0.8;;;;;;;;;;;;;-75
2022/12/07 21:06:08;;;;;;;;;;;;;;;2.54;94.44238;101310.3;;;;-75
2022/12/07 21:11:09;;;;;;;;;;;;;;;2.49;94.48633;101307.7;;;;-76
2022/12/07 21:16:08;;;;;;;;;;;;;;;2.44;94.43359;101304.1;;;;-77
2022/12/07 21:21:08;;;;;;;;;;;;;;;2.42;94.47266;101305.4;;;;-77
2022/12/07 21:26:11;;;;;;;;;;;;;;;2.39;94.52051;101298.4;;;;-77
2022/12/07 21:31:04;;;;;;;;;;;;;;;2.37;94.42871;101293.3;;;;-78
2022/12/07 21:33:38;;;;;;;3.4;1;;;;;;;;;;;;;-77
2022/12/07 21:36:06;;;;;;;;;;;;;;;2.32;94.58008;101286.9;;;;-77
2022/12/07 21:41:12;;;;;;;;;;;;;;;2.25;94.48926;101277.9;;;;-76
2022/12/07 21:46:04;;;;;;;;;;;;;;;2.27;94.54688;101272;;;;-76
2022/12/07 21:51:10;;;;;;;;;;;;;;;2.22;94.52441;101268.6;;;;-77
2022/12/07 21:56:05;;;;;;;;;;;;;;;2.2;94.64941;101263.4;;;;-76
2022/12/07 22:01:04;;;;;;;;;;;;;;;2.22;94.64453;101258.7;;;;-76
2022/12/07 22:03:36;;;;;;;3.7;1.3;;;;;;;;;;;;;-76
2022/12/07 22:06:07;;;;;;;;;;;;;;;2.17;94.58984;101256.8;;;;-77
2022/12/07 22:11:07;;;;;;;;;;;;;;;2.2;94.56348;101251.2;;;;-76
2022/12/07 22:16:05;;;;;;;;;;;;;;;2.25;94.48926;101257.9;;;;-76
2022/12/07 22:21:06;;;;;;;;;;;;;;;2.22;94.43945;101262.3;;;;-76
2022/12/07 22:26:07;;;;;;;;;;;;;;;2.2;94.67383;101258.1;;;;-76
2022/12/07 22:31:08;;;;;;;;;;;;;;;2.19;94.56152;101249.2;;;;-77
2022/12/07 22:33:36;;;;;;;3;1.3;;;;;;;;;;;;;-76
2022/12/07 22:36:05;;;;;;;;;;;;;;;2.18;94.49609;101240.2;;;;-76
2022/12/07 22:41:10;;;;;;;;;;;;;;;2.12;94.56738;101235.3;;;;-76
2022/12/07 22:46:04;;;;;;;;;;;;;;;2.07;94.41602;101230.8;;;;-76
2022/12/07 22:51:05;;;;;;;;;;;;;;;2.03;94.63574;101225.3;;;;-76
2022/12/07 22:56:05;;;;;;;;;;;;;;;2.03;94.56836;101225;;;;-77
2022/12/07 23:01:09;;;;;;;;;;;;;;;2.03;94.65723;101226.8;;;;-76
2022/12/07 23:03:36;;;;;;;3.6;1.2;;;;;;;;;;;;;-78
2022/12/07 23:06:08;;;;;;;;;;;;;;;2;94.60742;101215.5;;;;-77
2022/12/07 23:11:05;;;;;;;;;;;;;;;2.02;94.71777;101205.4;;;;-78
2022/12/07 23:16:14;;;;;;;;;;;;;;;2;94.69434;101200.2;;;;-77
2022/12/07 23:21:04;;;;;;;;;;;;;;;2.02;94.67676;101191;;;;-76
2022/12/07 23:26:09;;;;;;;;;;;;;;;2.01;94.84766;101176.4;;;;-77
2022/12/07 23:31:14;;;;;;;;;;;;;;;2.04;94.75586;101171.9;;;;-77
2022/12/07 23:33:34;;;;;;;2.9;1;;;;;;;;;;;;;-76
2022/12/07 23:36:13;;;;;;;;;;;;;;;2.05;94.87695;101168.8;;;;-76
2022/12/07 23:41:06;;;;;;;;;;;;;;;2.07;94.72949;101165.9;;;;-78
2022/12/07 23:46:04;;;;;;;;;;;;;;;2.08;94.67773;101157.8;;;;-77
2022/12/07 23:51:05;;;;;;;;;;;;;;;2.1;94.83301;101151.3;;;;-78
2022/12/07 23:56:05;;;;;;;;;;;;;;;2.09;94.86328;101140.7;;;;-78
